createdAt,value
2018-12-10T00:00:32.146Z,1.95
2018-12-10T00:03:07.484Z,1.92
2018-12-10T00:05:38.822Z,1.80
2018-12-10T00:08:08.833Z,1.72
2018-12-10T00:10:42.675Z,1.73
2018-12-10T00:13:13.250Z,1.64
2018-12-10T00:15:45.857Z,1.53
2018-12-10T00:18:17.374Z,1.55
2018-12-10T00:20:50.778Z,1.54
2018-12-10T00:23:25.893Z,1.53
2018-12-10T00:25:55.522Z,1.55
2018-12-10T00:28:33.072Z,1.56
2018-12-10T00:31:02.849Z,1.62
2018-12-10T00:33:34.532Z,1.70
2018-12-10T00:36:05.559Z,1.74
2018-12-10T00:38:38.466Z,1.81
2018-12-10T00:41:08.416Z,1.81
2018-12-10T00:43:39.889Z,1.84
2018-12-10T00:46:08.809Z,1.85
2018-12-10T00:48:39.861Z,1.86
2018-12-10T00:51:12.434Z,1.84
2018-12-10T00:53:45.659Z,1.83
2018-12-10T00:56:15.552Z,1.85
2018-12-10T00:58:49.209Z,1.84
2018-12-10T01:01:21.921Z,1.84
2018-12-10T01:03:51.650Z,1.88
2018-12-10T01:06:21.050Z,1.88
2018-12-10T01:08:51.969Z,1.91
2018-12-10T01:11:26.446Z,1.96
2018-12-10T01:13:58.081Z,1.99
2018-12-10T01:16:29.242Z,1.98
2018-12-10T01:19:04.317Z,1.89
2018-12-10T01:21:37.881Z,1.88
2018-12-10T01:24:13.879Z,1.79
2018-12-10T01:26:47.523Z,1.71
2018-12-10T01:29:18.756Z,1.66
2018-12-10T01:31:53.029Z,1.61
2018-12-10T01:34:21.974Z,1.57
2018-12-10T01:36:50.922Z,1.36
2018-12-10T01:39:23.330Z,1.33
2018-12-10T01:41:54.013Z,1.32
2018-12-10T01:44:27.798Z,1.26
2018-12-10T01:47:05.029Z,1.27
2018-12-10T01:49:40.845Z,1.26
2018-12-10T01:52:11.805Z,1.23
2018-12-10T01:54:43.772Z,1.18
2018-12-10T01:57:23.001Z,1.17
2018-12-10T01:59:56.805Z,1.11
2018-12-10T02:02:27.567Z,1.09
2018-12-10T02:04:58.649Z,1.10
2018-12-10T02:07:28.836Z,1.06
2018-12-10T02:10:02.690Z,1.03
2018-12-10T02:12:36.326Z,1.08
2018-12-10T02:15:06.918Z,1.06
2018-12-10T02:17:42.225Z,1.16
2018-12-10T02:20:18.499Z,1.12
2018-12-10T02:22:52.642Z,1.18
2018-12-10T02:25:24.622Z,1.20
2018-12-10T02:28:01.414Z,1.22
2018-12-10T02:30:33.575Z,1.12
2018-12-10T02:33:05.262Z,0.99
2018-12-10T02:35:38.314Z,0.89
2018-12-10T02:38:11.541Z,0.71
2018-12-10T02:40:54.414Z,0.66
2018-12-10T02:43:27.478Z,0.66
2018-12-10T02:46:04.330Z,0.51
2018-12-10T02:48:37.721Z,0.35
2018-12-10T02:51:15.339Z,0.39
2018-12-10T02:54:02.314Z,0.35
2018-12-10T02:56:34.424Z,0.41
2018-12-10T02:59:06.512Z,0.39
2018-12-10T03:01:39.605Z,0.50
2018-12-10T03:04:11.601Z,0.51
2018-12-10T03:06:44.067Z,0.50
2018-12-10T03:09:27.856Z,0.31
2018-12-10T03:12:07.038Z,0.44
2018-12-10T03:14:39.691Z,0.24
2018-12-10T03:17:17.663Z,0.25
2018-12-10T03:19:46.912Z,0.18
2018-12-10T03:22:22.315Z,0.19
2018-12-10T03:24:57.028Z,0.18
2018-12-10T03:27:36.095Z,0.22
2018-12-10T03:30:12.355Z,0.26
2018-12-10T03:32:47.622Z,0.32
2018-12-10T03:35:36.914Z,0.23
2018-12-10T03:39:12.262Z,0.37
2018-12-10T03:41:44.148Z,0.31
2018-12-10T03:44:16.930Z,0.37
2018-12-10T03:46:46.491Z,0.38
2018-12-10T03:49:21.457Z,0.44
2018-12-10T03:51:59.455Z,0.51
2018-12-10T03:54:32.226Z,0.56
2018-12-10T03:57:07.637Z,0.54
2018-12-10T03:59:44.719Z,0.48
2018-12-10T04:02:24.329Z,0.53
2018-12-10T04:05:02.778Z,0.52
2018-12-10T04:07:31.875Z,0.63
2018-12-10T04:10:08.999Z,0.59
2018-12-10T04:12:42.480Z,0.54
2018-12-10T04:15:19.520Z,0.62
2018-12-10T04:17:53.524Z,0.58
2018-12-10T04:20:24.804Z,0.56
2018-12-10T04:22:57.712Z,0.48
2018-12-10T04:25:29.489Z,0.45
2018-12-10T04:28:00.794Z,0.42
2018-12-10T04:30:31.382Z,0.40
2018-12-10T04:33:04.674Z,0.38
2018-12-10T04:35:41.996Z,0.38
2018-12-10T04:38:27.987Z,0.32
2018-12-10T04:41:23.335Z,0.20
2018-12-10T04:43:55.440Z,0.21
2018-12-10T04:46:30.970Z,0.22
2018-12-10T04:49:10.925Z,0.32
2018-12-10T04:51:44.422Z,0.22
2018-12-10T04:54:27.255Z,0.23
2018-12-10T04:57:12.714Z,0.16
2018-12-10T04:59:52.866Z,0.10
2018-12-10T05:02:24.639Z,0.07
2018-12-10T05:04:56.606Z,0.10
2018-12-10T05:07:30.181Z,0.08
2018-12-10T05:10:02.986Z,-0.19
2018-12-10T05:12:38.942Z,-0.25
2018-12-10T05:15:16.623Z,-0.49
2018-12-10T05:17:52.068Z,-0.56
2018-12-10T05:20:30.379Z,-0.57
2018-12-10T05:23:06.741Z,-0.49
2018-12-10T05:25:52.267Z,-0.45
2018-12-10T05:28:28.397Z,-0.51
2018-12-10T05:31:04.684Z,-0.39
2018-12-10T05:33:39.594Z,-0.34
2018-12-10T05:36:19.831Z,-0.42
2018-12-10T05:38:49.926Z,-0.53
2018-12-10T05:41:34.865Z,-0.54
2018-12-10T05:44:13.279Z,-0.45
2018-12-10T05:49:44.725Z,-0.35
2018-12-10T05:52:21.192Z,-0.37
2018-12-10T05:54:50.161Z,-0.36
2018-12-10T05:57:48.757Z,-0.22
2018-12-10T06:03:51.672Z,-0.10
2018-12-10T06:06:28.883Z,-0.25
2018-12-10T06:25:00.116Z,0.14
2018-12-10T07:45:49.660Z,1.39
2018-12-10T07:48:57.098Z,1.43
2018-12-10T10:31:15.253Z,6.41
2018-12-10T12:58:52.539Z,8.00
2018-12-10T13:01:22.377Z,8.05
2018-12-10T13:03:52.179Z,8.10
2018-12-10T13:06:23.058Z,8.11
2018-12-10T13:08:53.271Z,8.08
2018-12-10T13:11:26.009Z,8.14
2018-12-10T13:13:56.024Z,8.06
2018-12-10T13:16:26.733Z,8.03
2018-12-10T13:18:59.433Z,7.95
2018-12-10T13:21:37.749Z,7.85
2018-12-10T13:24:08.046Z,7.79
2018-12-10T13:26:37.576Z,7.79
2018-12-10T13:29:07.523Z,7.80
2018-12-10T13:31:41.846Z,7.76
2018-12-10T13:34:12.134Z,7.76
2018-12-10T13:36:45.243Z,7.71
2018-12-10T13:39:18.948Z,7.72
2018-12-10T13:41:51.694Z,7.70
2018-12-10T13:44:20.842Z,7.70
2018-12-10T13:46:54.117Z,7.63
2018-12-10T13:49:25.438Z,7.56
2018-12-10T13:52:09.034Z,7.58
2018-12-10T13:54:36.827Z,7.58
2018-12-10T13:57:08.096Z,7.57
2018-12-10T13:59:41.004Z,7.51
2018-12-10T14:02:13.658Z,7.48
2018-12-10T14:04:52.892Z,7.45
2018-12-10T14:07:22.567Z,7.43
2018-12-10T14:09:52.834Z,7.48
2018-12-10T14:12:24.977Z,7.43
2018-12-10T14:14:59.176Z,7.40
2018-12-10T14:17:33.021Z,7.32
2018-12-10T14:20:04.964Z,7.29
2018-12-10T14:22:34.575Z,7.24
2018-12-10T14:25:05.775Z,7.22
2018-12-10T14:27:38.736Z,6.82
2018-12-10T14:30:08.529Z,6.56
2018-12-10T14:32:38.368Z,6.27
2018-12-10T14:35:09.403Z,6.19
2018-12-10T14:37:39.344Z,6.11
2018-12-10T14:40:09.137Z,5.96
2018-12-10T14:42:53.264Z,5.89
2018-12-10T14:45:24.324Z,5.93
2018-12-10T14:47:57.942Z,6.00
2018-12-10T14:50:27.278Z,6.11
2018-12-10T14:52:59.392Z,6.14
2018-12-10T14:55:29.019Z,6.16
2018-12-10T14:57:59.000Z,6.61
2018-12-10T15:00:28.283Z,6.54
2018-12-10T15:02:57.743Z,6.59
2018-12-10T15:05:28.449Z,6.64
2018-12-10T15:07:59.913Z,6.40
2018-12-10T15:10:31.538Z,6.27
2018-12-10T15:13:01.822Z,6.15
2018-12-10T15:15:31.587Z,6.16
2018-12-10T15:18:03.029Z,5.98
2018-12-10T15:20:32.726Z,6.04
2018-12-10T15:23:05.081Z,6.16
2018-12-10T15:25:35.000Z,6.36
2018-12-10T15:28:04.111Z,6.46
2018-12-10T15:30:34.282Z,6.80
2018-12-10T15:33:05.415Z,6.88
2018-12-10T15:35:35.565Z,6.86
2018-12-10T15:38:06.112Z,6.90
2018-12-10T15:40:37.411Z,7.04
2018-12-10T15:43:07.392Z,7.12
2018-12-10T15:45:38.144Z,7.09
2018-12-10T15:48:08.742Z,7.02
2018-12-10T15:50:39.936Z,7.11
2018-12-10T16:28:57.595Z,6.75
2018-12-10T16:31:41.130Z,6.80
2018-12-10T16:34:48.355Z,6.98
2018-12-10T16:37:26.438Z,7.08
2018-12-10T16:40:12.190Z,7.03
2018-12-10T16:45:38.920Z,6.88
2018-12-10T16:48:34.009Z,6.76
2018-12-10T16:51:17.727Z,6.91
2018-12-10T16:54:06.630Z,6.95
2018-12-10T17:02:57.749Z,7.33
2018-12-10T17:05:43.131Z,7.21
2018-12-10T17:08:47.147Z,7.32
2018-12-10T17:11:29.263Z,7.24
2018-12-10T17:33:51.316Z,6.74
2018-12-10T17:36:36.687Z,6.61
2018-12-10T17:46:58.375Z,6.79
2018-12-10T17:49:31.766Z,6.79
2018-12-10T17:55:55.287Z,6.73
2018-12-10T17:59:14.739Z,6.93
2018-12-10T18:11:05.829Z,6.79
2018-12-10T18:17:04.365Z,6.69
2018-12-10T18:19:59.424Z,6.70
2018-12-10T18:22:44.780Z,6.71
2018-12-10T18:28:05.700Z,6.90
2018-12-10T18:33:42.723Z,6.84
2018-12-10T18:36:24.299Z,6.81
2018-12-10T18:39:08.129Z,6.77
2018-12-10T18:41:53.233Z,6.76
2018-12-10T18:47:15.485Z,6.84
2018-12-10T18:49:53.949Z,6.69
2018-12-10T18:52:30.034Z,6.62
2018-12-10T18:55:08.885Z,6.61
2018-12-10T18:57:44.356Z,6.47
2018-12-10T19:00:37.523Z,6.28
2018-12-10T19:03:26.929Z,6.26
2018-12-10T19:06:00.560Z,6.22
2018-12-10T19:08:35.165Z,6.25
2018-12-10T19:11:09.572Z,6.33
2018-12-10T19:13:42.475Z,6.38
2018-12-10T19:16:18.821Z,6.41
2018-12-10T19:19:07.204Z,6.37
2018-12-10T19:21:46.629Z,6.37
2018-12-10T19:24:22.766Z,6.39
2018-12-10T19:27:04.676Z,6.48
2018-12-10T19:29:45.406Z,6.55
2018-12-10T19:32:25.504Z,6.55
2018-12-10T19:37:49.815Z,6.48
2018-12-10T19:43:10.910Z,6.45
2018-12-10T19:46:02.274Z,6.34
2018-12-10T19:48:43.942Z,6.29
2018-12-10T19:51:19.510Z,6.37
2018-12-10T19:53:56.085Z,6.32
2018-12-10T19:56:35.547Z,6.35
2018-12-10T19:59:16.418Z,6.71
2018-12-10T20:01:56.103Z,6.79
2018-12-10T20:07:28.327Z,7.30
2018-12-10T20:10:37.857Z,7.09
2018-12-10T20:13:20.730Z,6.81
2018-12-10T20:18:56.959Z,6.89
2018-12-10T20:21:32.510Z,7.00
2018-12-10T20:24:19.005Z,6.97
2018-12-10T20:32:28.935Z,6.95
2018-12-10T20:35:10.542Z,6.93
2018-12-10T20:37:51.205Z,6.92
2018-12-10T20:40:36.667Z,7.08
2018-12-10T20:46:14.848Z,7.22
2018-12-10T20:48:56.195Z,7.30
2018-12-10T20:51:47.757Z,7.29
2018-12-10T20:55:29.920Z,7.34
2018-12-10T21:01:59.764Z,7.29
2018-12-10T21:04:50.516Z,7.27
2018-12-10T21:10:51.039Z,7.25
2018-12-10T21:13:31.148Z,7.29
2018-12-10T21:16:15.333Z,7.33
2018-12-10T21:19:13.436Z,7.38
2018-12-10T21:28:13.638Z,7.44
2018-12-10T21:30:59.114Z,7.41
2018-12-10T21:33:45.247Z,7.45
2018-12-10T21:36:17.214Z,7.43
2018-12-10T21:41:58.502Z,7.40
2018-12-10T21:44:34.205Z,7.43
2018-12-10T21:47:27.873Z,7.42
2018-12-10T21:50:06.839Z,7.52
2018-12-10T21:53:05.802Z,7.50
2018-12-10T21:56:35.330Z,7.51
2018-12-10T21:59:18.816Z,7.41
2018-12-10T22:01:54.344Z,7.33
2018-12-10T22:04:36.754Z,7.32
2018-12-10T22:07:38.814Z,7.36
2018-12-10T22:10:23.748Z,7.34
2018-12-10T22:33:38.541Z,7.05
2018-12-10T22:43:12.341Z,7.04
2018-12-10T22:45:58.510Z,6.91
2018-12-10T22:48:48.391Z,6.94
2018-12-10T22:51:40.018Z,6.92
2018-12-10T22:54:14.224Z,6.79
2018-12-10T22:56:45.697Z,6.59
2018-12-10T22:59:35.753Z,6.78
2018-12-10T23:02:21.539Z,6.80
2018-12-10T23:04:58.068Z,6.82
2018-12-10T23:07:29.614Z,6.72
2018-12-10T23:35:26.926Z,6.64
2018-12-10T23:38:18.907Z,6.67
